sensor_id;sensor_type;location;lat;lon;timestamp;temperature;humidity
3268;DHT22;1646;52.450;13.326;2023-10-13T00:02:52;15.40;99.90
3268;DHT22;1646;52.450;13.326;2023-10-13T00:07:50;15.50;99.90
3268;DHT22;1646;52.450;13.326;2023-10-13T00:12:49;15.50;99.90
3268;DHT22;1646;52.450;13.326;2023-10-13T00:17:47;15.50;99.90
3268;DHT22;1646;52.450;13.326;2023-10-13T00:22:47;15.40;99.90
3268;DHT22;1646;52.450;13.326;2023-10-13T00:27:45;15.40;99.90
3268;DHT22;1646;52.450;13.326;2023-10-13T00:32:49;15.30;99.90
3268;DHT22;1646;52.450;13.326;2023-10-13T00:37:54;15.30;99.90
3268;DHT22;1646;52.450;13.326;2023-10-13T00:42:53;15.40;99.90
3268;DHT22;1646;52.450;13.326;2023-10-13T00:47:52;15.40;99.90
3268;DHT22;1646;52.450;13.326;2023-10-13T00:52:56;15.40;99.90
3268;DHT22;1646;52.450;13.326;2023-10-13T00:57:55;15.40;99.90
3268;DHT22;1646;52.450;13.326;2023-10-13T01:02:56;15.30;99.90
3268;DHT22;1646;52.450;13.326;2023-10-13T01:08:06;15.20;99.90
3268;DHT22;1646;52.450;13.326;2023-10-13T01:13:08;15.10;99.90
3268;DHT22;1646;52.450;13.326;2023-10-13T01:18:08;15.20;99.90
3268;DHT22;1646;52.450;13.326;2023-10-13T01:23:11;15.20;99.90
3268;DHT22;1646;52.450;13.326;2023-10-13T01:28:15;15.20;99.90
3268;DHT22;1646;52.450;13.326;2023-10-13T01:33:14;15.20;99.90
3268;DHT22;1646;52.450;13.326;2023-10-13T01:38:14;15.10;99.90
3268;DHT22;1646;52.450;13.326;2023-10-13T01:43:13;15.10;99.90
3268;DHT22;1646;52.450;13.326;2023-10-13T01:48:12;15.10;99.90
3268;DHT22;1646;52.450;13.326;2023-10-13T01:53:14;15.10;99.90
3268;DHT22;1646;52.450;13.326;2023-10-13T01:58:15;15.00;99.90
3268;DHT22;1646;52.450;13.326;2023-10-13T02:03:17;15.00;99.90
3268;DHT22;1646;52.450;13.326;2023-10-13T02:08:18;15.10;99.90
3268;DHT22;1646;52.450;13.326;2023-10-13T02:13:20;15.20;99.90
3268;DHT22;1646;52.450;13.326;2023-10-13T02:18:20;15.30;99.90
3268;DHT22;1646;52.450;13.326;2023-10-13T02:23:25;15.20;99.90
3268;DHT22;1646;52.450;13.326;2023-10-13T02:28:26;15.20;99.90
3268;DHT22;1646;52.450;13.326;2023-10-13T02:33:26;15.20;99.90
3268;DHT22;1646;52.450;13.326;2023-10-13T02:38:29;15.20;99.90
3268;DHT22;1646;52.450;13.326;2023-10-13T02:43:33;15.20;99.90
3268;DHT22;1646;52.450;13.326;2023-10-13T02:48:32;15.20;99.90
3268;DHT22;1646;52.450;13.326;2023-10-13T02:53:39;15.20;99.90
3268;DHT22;1646;52.450;13.326;2023-10-13T02:58:38;15.20;99.90
3268;DHT22;1646;52.450;13.326;2023-10-13T03:03:37;15.10;99.90
3268;DHT22;1646;52.450;13.326;2023-10-13T03:08:35;15.10;99.90
3268;DHT22;1646;52.450;13.326;2023-10-13T03:13:35;15.10;99.90
3268;DHT22;1646;52.450;13.326;2023-10-13T03:18:34;15.20;99.90
3268;DHT22;1646;52.450;13.326;2023-10-13T03:23:33;15.20;99.90
3268;DHT22;1646;52.450;13.326;2023-10-13T03:28:43;15.20;99.90
3268;DHT22;1646;52.450;13.326;2023-10-13T03:33:48;15.30;99.90
3268;DHT22;1646;52.450;13.326;2023-10-13T03:38:53;15.30;99.90
3268;DHT22;1646;52.450;13.326;2023-10-13T03:43:54;15.40;99.90
3268;DHT22;1646;52.450;13.326;2023-10-13T03:49:05;15.40;99.90
3268;DHT22;1646;52.450;13.326;2023-10-13T03:54:09;15.40;99.90
3268;DHT22;1646;52.450;13.326;2023-10-13T03:59:10;15.40;99.90
3268;DHT22;1646;52.450;13.326;2023-10-13T04:04:17;15.40;99.90
3268;DHT22;1646;52.450;13.326;2023-10-13T04:09:31;15.30;99.90
3268;DHT22;1646;52.450;13.326;2023-10-13T04:14:48;15.30;99.90
3268;DHT22;1646;52.450;13.326;2023-10-13T04:20:12;15.30;99.90
3268;DHT22;1646;52.450;13.326;2023-10-13T04:25:18;15.40;99.90
3268;DHT22;1646;52.450;13.326;2023-10-13T04:30:37;15.40;99.90
3268;DHT22;1646;52.450;13.326;2023-10-13T04:35:49;15.30;99.90
3268;DHT22;1646;52.450;13.326;2023-10-13T04:40:56;15.30;99.90
3268;DHT22;1646;52.450;13.326;2023-10-13T04:46:00;15.30;99.90
3268;DHT22;1646;52.450;13.326;2023-10-13T04:51:11;15.30;99.90
3268;DHT22;1646;52.450;13.326;2023-10-13T04:56:46;15.30;99.90
3268;DHT22;1646;52.450;13.326;2023-10-13T05:02:07;15.40;99.90
3268;DHT22;1646;52.450;13.326;2023-10-13T05:07:40;15.40;99.90
3268;DHT22;1646;52.450;13.326;2023-10-13T05:12:56;15.40;99.90
3268;DHT22;1646;52.450;13.326;2023-10-13T05:18:13;15.50;99.90
3268;DHT22;1646;52.450;13.326;2023-10-13T05:23:31;15.60;99.90
3268;DHT22;1646;52.450;13.326;2023-10-13T05:28:47;15.60;99.90
3268;DHT22;1646;52.450;13.326;2023-10-13T05:34:24;15.60;99.90
3268;DHT22;1646;52.450;13.326;2023-10-13T05:39:37;15.70;99.90
3268;DHT22;1646;52.450;13.326;2023-10-13T05:44:52;15.70;99.90
3268;DHT22;1646;52.450;13.326;2023-10-13T05:50:15;15.70;99.90
3268;DHT22;1646;52.450;13.326;2023-10-13T05:55:46;15.70;99.90
3268;DHT22;1646;52.450;13.326;2023-10-13T06:01:04;15.80;99.90
3268;DHT22;1646;52.450;13.326;2023-10-13T06:06:22;15.80;99.90
3268;DHT22;1646;52.450;13.326;2023-10-13T06:11:37;15.80;99.90
3268;DHT22;1646;52.450;13.326;2023-10-13T06:16:53;15.90;99.90
3268;DHT22;1646;52.450;13.326;2023-10-13T06:22:10;16.00;99.90
3268;DHT22;1646;52.450;13.326;2023-10-13T06:27:26;16.10;99.90
3268;DHT22;1646;52.450;13.326;2023-10-13T06:32:42;16.20;99.90
3268;DHT22;1646;52.450;13.326;2023-10-13T06:37:44;16.30;99.90
3268;DHT22;1646;52.450;13.326;2023-10-13T06:42:43;16.20;99.90
3268;DHT22;1646;52.450;13.326;2023-10-13T06:47:42;16.20;99.90
3268;DHT22;1646;52.450;13.326;2023-10-13T06:52:41;16.30;99.90
3268;DHT22;1646;52.450;13.326;2023-10-13T06:57:40;16.40;99.90
3268;DHT22;1646;52.450;13.326;2023-10-13T07:02:41;16.70;99.90
3268;DHT22;1646;52.450;13.326;2023-10-13T07:07:41;16.90;99.90
3268;DHT22;1646;52.450;13.326;2023-10-13T07:12:42;17.00;99.90
3268;DHT22;1646;52.450;13.326;2023-10-13T07:17:40;17.20;99.90
3268;DHT22;1646;52.450;13.326;2023-10-13T07:22:42;17.30;99.90
3268;DHT22;1646;52.450;13.326;2023-10-13T07:27:54;17.40;99.90
3268;DHT22;1646;52.450;13.326;2023-10-13T07:32:54;17.40;99.90
3268;DHT22;1646;52.450;13.326;2023-10-13T07:37:57;17.60;99.90
3268;DHT22;1646;52.450;13.326;2023-10-13T07:42:58;17.70;99.90
3268;DHT22;1646;52.450;13.326;2023-10-13T07:47:58;17.70;99.90
3268;DHT22;1646;52.450;13.326;2023-10-13T07:52:57;17.80;99.90
3268;DHT22;1646;52.450;13.326;2023-10-13T07:58:03;17.80;99.90
3268;DHT22;1646;52.450;13.326;2023-10-13T08:03:04;17.90;99.90
3268;DHT22;1646;52.450;13.326;2023-10-13T08:08:16;18.00;99.90
3268;DHT22;1646;52.450;13.326;2023-10-13T08:13:17;18.00;99.90
3268;DHT22;1646;52.450;13.326;2023-10-13T08:18:18;18.00;99.90
3268;DHT22;1646;52.450;13.326;2023-10-13T08:23:28;18.00;99.90
3268;DHT22;1646;52.450;13.326;2023-10-13T08:28:53;18.30;99.90
3268;DHT22;1646;52.450;13.326;2023-10-13T08:33:54;18.50;99.90
3268;DHT22;1646;52.450;13.326;2023-10-13T08:39:03;18.50;99.90
3268;DHT22;1646;52.450;13.326;2023-10-13T08:44:21;18.50;99.90
3268;DHT22;1646;52.450;13.326;2023-10-13T08:49:42;18.50;99.90
3268;DHT22;1646;52.450;13.326;2023-10-13T08:54:47;18.60;99.90
3268;DHT22;1646;52.450;13.326;2023-10-13T08:59:48;18.60;99.90
3268;DHT22;1646;52.450;13.326;2023-10-13T09:04:52;18.60;99.90
3268;DHT22;1646;52.450;13.326;2023-10-13T09:10:07;18.60;99.90
3268;DHT22;1646;52.450;13.326;2023-10-13T09:15:32;18.60;99.90
3268;DHT22;1646;52.450;13.326;2023-10-13T09:20:44;18.70;99.90
3268;DHT22;1646;52.450;13.326;2023-10-13T09:25:43;18.60;99.90
3268;DHT22;1646;52.450;13.326;2023-10-13T09:30:57;18.60;99.90
3268;DHT22;1646;52.450;13.326;2023-10-13T09:35:56;18.60;99.90
3268;DHT22;1646;52.450;13.326;2023-10-13T09:40:58;18.60;99.90
3268;DHT22;1646;52.450;13.326;2023-10-13T09:46:01;18.60;99.90
3268;DHT22;1646;52.450;13.326;2023-10-13T09:51:04;18.60;99.90
3268;DHT22;1646;52.450;13.326;2023-10-13T09:56:11;18.50;99.90
3268;DHT22;1646;52.450;13.326;2023-10-13T10:01:24;18.50;99.90
3268;DHT22;1646;52.450;13.326;2023-10-13T10:06:30;18.50;99.90
3268;DHT22;1646;52.450;13.326;2023-10-13T10:12:09;18.70;99.90
3268;DHT22;1646;52.450;13.326;2023-10-13T10:17:18;18.80;99.90
3268;DHT22;1646;52.450;13.326;2023-10-13T10:22:26;18.90;99.90
3268;DHT22;1646;52.450;13.326;2023-10-13T10:27:29;18.90;99.90
3268;DHT22;1646;52.450;13.326;2023-10-13T10:32:38;18.90;99.90
3268;DHT22;1646;52.450;13.326;2023-10-13T10:37:38;18.80;99.90
3268;DHT22;1646;52.450;13.326;2023-10-13T10:42:44;18.80;99.90
3268;DHT22;1646;52.450;13.326;2023-10-13T10:47:49;18.90;99.90
3268;DHT22;1646;52.450;13.326;2023-10-13T10:52:55;18.90;99.90
3268;DHT22;1646;52.450;13.326;2023-10-13T10:57:58;18.90;99.90
3268;DHT22;1646;52.450;13.326;2023-10-13T11:02:59;18.90;99.90
3268;DHT22;1646;52.450;13.326;2023-10-13T11:07:58;18.90;99.90
3268;DHT22;1646;52.450;13.326;2023-10-13T11:12:59;19.00;99.90
3268;DHT22;1646;52.450;13.326;2023-10-13T11:18:12;19.10;99.90
3268;DHT22;1646;52.450;13.326;2023-10-13T11:23:18;19.10;99.90
3268;DHT22;1646;52.450;13.326;2023-10-13T11:28:20;19.20;99.90
3268;DHT22;1646;52.450;13.326;2023-10-13T11:33:26;19.30;99.90
3268;DHT22;1646;52.450;13.326;2023-10-13T11:38:27;19.30;99.90
3268;DHT22;1646;52.450;13.326;2023-10-13T11:43:26;19.30;99.90
3268;DHT22;1646;52.450;13.326;2023-10-13T11:48:26;19.30;99.90
3268;DHT22;1646;52.450;13.326;2023-10-13T11:53:33;19.30;99.90
3268;DHT22;1646;52.450;13.326;2023-10-13T11:58:32;19.40;99.90
3268;DHT22;1646;52.450;13.326;2023-10-13T12:03:32;19.50;99.90
3268;DHT22;1646;52.450;13.326;2023-10-13T12:08:48;19.50;99.90
3268;DHT22;1646;52.450;13.326;2023-10-13T12:13:49;19.70;99.90
3268;DHT22;1646;52.450;13.326;2023-10-13T12:18:49;19.80;99.90
3268;DHT22;1646;52.450;13.326;2023-10-13T12:23:50;19.80;99.90
3268;DHT22;1646;52.450;13.326;2023-10-13T12:28:51;19.90;99.90
3268;DHT22;1646;52.450;13.326;2023-10-13T12:33:52;20.20;99.90
3268;DHT22;1646;52.450;13.326;2023-10-13T12:38:50;20.20;99.90
3268;DHT22;1646;52.450;13.326;2023-10-13T12:44:09;20.30;99.90
3268;DHT22;1646;52.450;13.326;2023-10-13T12:49:26;20.40;99.90
3268;DHT22;1646;52.450;13.326;2023-10-13T12:54:47;20.60;99.90
3268;DHT22;1646;52.450;13.326;2023-10-13T12:59:55;20.60;99.90
3268;DHT22;1646;52.450;13.326;2023-10-13T13:04:56;20.80;99.90
3268;DHT22;1646;52.450;13.326;2023-10-13T13:10:03;20.90;99.90
3268;DHT22;1646;52.450;13.326;2023-10-13T13:15:01;20.90;99.90
3268;DHT22;1646;52.450;13.326;2023-10-13T13:20:08;21.10;99.90
3268;DHT22;1646;52.450;13.326;2023-10-13T13:25:23;21.40;99.90
3268;DHT22;1646;52.450;13.326;2023-10-13T13:30:27;21.70;99.90
3268;DHT22;1646;52.450;13.326;2023-10-13T13:35:52;21.80;99.90
3268;DHT22;1646;52.450;13.326;2023-10-13T13:40:51;21.90;99.90
3268;DHT22;1646;52.450;13.326;2023-10-13T13:45:51;21.90;99.90
3268;DHT22;1646;52.450;13.326;2023-10-13T13:50:56;21.90;99.90
3268;DHT22;1646;52.450;13.326;2023-10-13T13:56:01;21.90;99.90
3268;DHT22;1646;52.450;13.326;2023-10-13T14:01:01;22.00;99.90
3268;DHT22;1646;52.450;13.326;2023-10-13T14:06:10;22.30;99.90
3268;DHT22;1646;52.450;13.326;2023-10-13T14:11:15;22.40;99.90
3268;DHT22;1646;52.450;13.326;2023-10-13T14:16:41;22.50;99.90
3268;DHT22;1646;52.450;13.326;2023-10-13T14:21:44;22.50;99.90
3268;DHT22;1646;52.450;13.326;2023-10-13T14:26:50;22.50;99.90
3268;DHT22;1646;52.450;13.326;2023-10-13T14:31:49;22.60;99.90
3268;DHT22;1646;52.450;13.326;2023-10-13T14:36:48;22.70;99.90
3268;DHT22;1646;52.450;13.326;2023-10-13T14:41:47;22.70;99.90
3268;DHT22;1646;52.450;13.326;2023-10-13T14:46:45;22.70;99.90
3268;DHT22;1646;52.450;13.326;2023-10-13T14:51:44;22.60;99.90
3268;DHT22;1646;52.450;13.326;2023-10-13T14:56:43;22.30;99.90
3268;DHT22;1646;52.450;13.326;2023-10-13T15:01:42;22.20;99.90
3268;DHT22;1646;52.450;13.326;2023-10-13T15:06:40;22.10;99.90
3268;DHT22;1646;52.450;13.326;2023-10-13T15:11:40;22.00;99.90
3268;DHT22;1646;52.450;13.326;2023-10-13T15:16:47;22.10;99.90
3268;DHT22;1646;52.450;13.326;2023-10-13T15:21:46;22.10;99.90
3268;DHT22;1646;52.450;13.326;2023-10-13T15:26:48;22.00;99.90
3268;DHT22;1646;52.450;13.326;2023-10-13T15:31:48;22.00;99.90
3268;DHT22;1646;52.450;13.326;2023-10-13T15:37:02;21.90;99.90
3268;DHT22;1646;52.450;13.326;2023-10-13T15:42:02;21.90;99.90
3268;DHT22;1646;52.450;13.326;2023-10-13T15:47:02;21.90;99.90
3268;DHT22;1646;52.450;13.326;2023-10-13T15:52:20;22.00;99.90
3268;DHT22;1646;52.450;13.326;2023-10-13T15:57:20;21.90;99.90
3268;DHT22;1646;52.450;13.326;2023-10-13T16:02:21;21.90;99.90
3268;DHT22;1646;52.450;13.326;2023-10-13T16:07:21;21.80;99.90
3268;DHT22;1646;52.450;13.326;2023-10-13T16:12:19;21.80;99.90
3268;DHT22;1646;52.450;13.326;2023-10-13T16:17:17;21.80;99.90
3268;DHT22;1646;52.450;13.326;2023-10-13T16:22:19;21.70;99.90
3268;DHT22;1646;52.450;13.326;2023-10-13T16:27:17;21.70;99.90
3268;DHT22;1646;52.450;13.326;2023-10-13T16:32:16;21.70;99.90
3268;DHT22;1646;52.450;13.326;2023-10-13T16:37:15;21.60;99.90
3268;DHT22;1646;52.450;13.326;2023-10-13T16:42:15;21.60;99.90
3268;DHT22;1646;52.450;13.326;2023-10-13T16:47:13;21.60;99.90
3268;DHT22;1646;52.450;13.326;2023-10-13T16:52:11;21.60;99.90
3268;DHT22;1646;52.450;13.326;2023-10-13T16:57:10;21.60;99.90
3268;DHT22;1646;52.450;13.326;2023-10-13T17:02:10;21.60;99.90
3268;DHT22;1646;52.450;13.326;2023-10-13T17:07:08;21.60;99.90
3268;DHT22;1646;52.450;13.326;2023-10-13T17:12:07;21.60;99.90
3268;DHT22;1646;52.450;13.326;2023-10-13T17:17:07;21.60;99.90
3268;DHT22;1646;52.450;13.326;2023-10-13T17:22:07;21.70;99.90
3268;DHT22;1646;52.450;13.326;2023-10-13T17:27:05;21.70;99.90
3268;DHT22;1646;52.450;13.326;2023-10-13T17:32:05;21.70;99.90
3268;DHT22;1646;52.450;13.326;2023-10-13T17:37:06;21.80;99.90
3268;DHT22;1646;52.450;13.326;2023-10-13T17:42:06;21.80;99.90
3268;DHT22;1646;52.450;13.326;2023-10-13T17:47:05;21.90;99.90
3268;DHT22;1646;52.450;13.326;2023-10-13T17:52:08;21.90;99.90
3268;DHT22;1646;52.450;13.326;2023-10-13T17:57:07;21.80;99.90
3268;DHT22;1646;52.450;13.326;2023-10-13T18:02:05;21.80;99.90
3268;DHT22;1646;52.450;13.326;2023-10-13T18:07:04;21.90;99.90
3268;DHT22;1646;52.450;13.326;2023-10-13T18:12:04;21.90;99.90
3268;DHT22;1646;52.450;13.326;2023-10-13T18:17:03;21.90;99.90
3268;DHT22;1646;52.450;13.326;2023-10-13T18:22:05;21.80;99.90
3268;DHT22;1646;52.450;13.326;2023-10-13T18:27:04;21.80;99.90
3268;DHT22;1646;52.450;13.326;2023-10-13T18:32:03;21.90;99.90
3268;DHT22;1646;52.450;13.326;2023-10-13T18:37:02;21.80;99.90
3268;DHT22;1646;52.450;13.326;2023-10-13T18:42:05;21.90;99.90
3268;DHT22;1646;52.450;13.326;2023-10-13T18:47:03;21.90;99.90
3268;DHT22;1646;52.450;13.326;2023-10-13T18:52:01;21.80;99.90
3268;DHT22;1646;52.450;13.326;2023-10-13T18:57:00;21.80;99.90
3268;DHT22;1646;52.450;13.326;2023-10-13T19:02:01;21.90;99.90
3268;DHT22;1646;52.450;13.326;2023-10-13T19:06:59;21.90;99.90
3268;DHT22;1646;52.450;13.326;2023-10-13T19:11:57;21.90;99.90
3268;DHT22;1646;52.450;13.326;2023-10-13T19:16:55;21.90;99.90
3268;DHT22;1646;52.450;13.326;2023-10-13T19:21:56;21.90;99.90
3268;DHT22;1646;52.450;13.326;2023-10-13T19:26:54;21.90;99.90
3268;DHT22;1646;52.450;13.326;2023-10-13T19:31:53;21.90;99.90
3268;DHT22;1646;52.450;13.326;2023-10-13T19:36:52;21.90;99.90
3268;DHT22;1646;52.450;13.326;2023-10-13T19:41:52;21.90;99.90
3268;DHT22;1646;52.450;13.326;2023-10-13T19:46:50;21.90;99.90
3268;DHT22;1646;52.450;13.326;2023-10-13T19:51:48;21.90;99.90
3268;DHT22;1646;52.450;13.326;2023-10-13T19:56:51;21.90;99.90
3268;DHT22;1646;52.450;13.326;2023-10-13T20:01:50;21.90;99.90
3268;DHT22;1646;52.450;13.326;2023-10-13T20:06:48;21.80;99.90
3268;DHT22;1646;52.450;13.326;2023-10-13T20:11:53;21.80;99.90
3268;DHT22;1646;52.450;13.326;2023-10-13T20:16:54;21.80;99.90
3268;DHT22;1646;52.450;13.326;2023-10-13T20:21:53;21.90;99.90
3268;DHT22;1646;52.450;13.326;2023-10-13T20:26:53;21.90;99.90
3268;DHT22;1646;52.450;13.326;2023-10-13T20:31:53;21.80;99.90
3268;DHT22;1646;52.450;13.326;2023-10-13T20:36:52;21.90;99.90
3268;DHT22;1646;52.450;13.326;2023-10-13T20:41:53;21.80;99.90
3268;DHT22;1646;52.450;13.326;2023-10-13T20:46:52;21.90;99.90
3268;DHT22;1646;52.450;13.326;2023-10-13T20:51:53;21.80;99.90
3268;DHT22;1646;52.450;13.326;2023-10-13T20:56:52;21.90;99.90
3268;DHT22;1646;52.450;13.326;2023-10-13T21:01:51;21.90;99.90
3268;DHT22;1646;52.450;13.326;2023-10-13T21:06:52;21.90;99.90
3268;DHT22;1646;52.450;13.326;2023-10-13T21:11:50;21.90;99.90
3268;DHT22;1646;52.450;13.326;2023-10-13T21:16:50;21.90;99.90
3268;DHT22;1646;52.450;13.326;2023-10-13T21:21:49;21.90;99.90
3268;DHT22;1646;52.450;13.326;2023-10-13T21:26:50;21.90;99.90
3268;DHT22;1646;52.450;13.326;2023-10-13T21:31:50;21.90;99.90
3268;DHT22;1646;52.450;13.326;2023-10-13T21:36:50;21.90;99.90
3268;DHT22;1646;52.450;13.326;2023-10-13T21:41:48;21.90;99.90
3268;DHT22;1646;52.450;13.326;2023-10-13T21:46:46;21.90;99.90
3268;DHT22;1646;52.450;13.326;2023-10-13T21:51:46;21.90;99.90
3268;DHT22;1646;52.450;13.326;2023-10-13T21:56:44;21.80;99.90
3268;DHT22;1646;52.450;13.326;2023-10-13T22:01:44;21.80;99.90
3268;DHT22;1646;52.450;13.326;2023-10-13T22:06:42;21.70;99.90
3268;DHT22;1646;52.450;13.326;2023-10-13T22:11:45;21.60;99.90
3268;DHT22;1646;52.450;13.326;2023-10-13T22:16:43;21.50;99.90
3268;DHT22;1646;52.450;13.326;2023-10-13T22:21:42;21.50;99.90
3268;DHT22;1646;52.450;13.326;2023-10-13T22:26:40;21.40;99.90
3268;DHT22;1646;52.450;13.326;2023-10-13T22:31:41;21.40;99.90
3268;DHT22;1646;52.450;13.326;2023-10-13T22:36:40;21.30;99.90
3268;DHT22;1646;52.450;13.326;2023-10-13T22:42:00;21.20;99.90
3268;DHT22;1646;52.450;13.326;2023-10-13T22:47:00;21.20;99.90
3268;DHT22;1646;52.450;13.326;2023-10-13T22:51:59;21.20;99.90
3268;DHT22;1646;52.450;13.326;2023-10-13T22:56:58;21.20;99.90
3268;DHT22;1646;52.450;13.326;2023-10-13T23:01:56;21.30;99.90
3268;DHT22;1646;52.450;13.326;2023-10-13T23:06:57;21.30;99.90
3268;DHT22;1646;52.450;13.326;2023-10-13T23:11:57;21.30;99.90
3268;DHT22;1646;52.450;13.326;2023-10-13T23:17:01;21.30;99.90
3268;DHT22;1646;52.450;13.326;2023-10-13T23:22:02;21.40;99.90
3268;DHT22;1646;52.450;13.326;2023-10-13T23:27:03;21.40;99.90
3268;DHT22;1646;52.450;13.326;2023-10-13T23:32:02;21.40;99.90
3268;DHT22;1646;52.450;13.326;2023-10-13T23:37:02;21.40;99.90
3268;DHT22;1646;52.450;13.326;2023-10-13T23:42:07;21.30;99.90
3268;DHT22;1646;52.450;13.326;2023-10-13T23:47:15;21.30;99.90
3268;DHT22;1646;52.450;13.326;2023-10-13T23:53:02;21.20;99.90
3268;DHT22;1646;52.450;13.326;2023-10-13T23:58:00;21.20;99.90
